Ava Bill Martin Memorial Airport


Codes: KAOV/
Name: Ava Bill Martin Memorial Airport
City: Ava
Country: United States
Elevation: 1311 ft.

Photos at Ava Bill Martin Memorial Airport


   Photos courtesy of SpottingLog. You can add your own sightings and photos by signing up for a free trial today.



No photos found.

Weather at Ava Bill Martin Memorial Airport


Time (UTC)DescriptionTempratureWindCloud coverageVisibilityPressureHumidity
26-Jun-2024 00:00Overcast Clouds29°C4 mph, NE85%10000m1029hPa51%
26-Jun-2024 03:00Overcast Clouds28°C4 mph, W90%10000m1023hPa56%
26-Jun-2024 06:00Light Rain23°C4 mph, SE88%10000m1017hPa81%
26-Jun-2024 09:00Light Rain21°C2 mph, SW73%10000m1010hPa95%
26-Jun-2024 12:00Light Rain21°C4 mph, W59%10000m1011hPa96%
26-Jun-2024 15:00Light Rain27°C7 mph, W6%10000m1010hPa66%
26-Jun-2024 18:00Clear Sky31°C11 mph, NW3%10000m1009hPa52%
26-Jun-2024 21:00Scattered Clouds31°C9 mph, N33%10000m1009hPa54%
27-Jun-2024 00:00Scattered Clouds27°C9 mph, N42%10000m1009hPa73%
27-Jun-2024 03:00Clear Sky23°C9 mph, NE0%10000m1011hPa84%
27-Jun-2024 06:00Clear Sky21°C7 mph, NE0%10000m1012hPa94%
27-Jun-2024 09:00Broken Clouds20°C7 mph, NE67%10000m1012hPa98%
27-Jun-2024 12:00Broken Clouds20°C7 mph, NE54%10000m1013hPa96%
27-Jun-2024 15:00Few Clouds25°C9 mph, E19%10000m1013hPa69%
27-Jun-2024 18:00Scattered Clouds29°C9 mph, E29%10000m1012hPa48%
27-Jun-2024 21:00Overcast Clouds27°C9 mph, SE100%10000m1011hPa56%
28-Jun-2024 00:00Overcast Clouds25°C7 mph, SE100%10000m1010hPa65%
28-Jun-2024 03:00Broken Clouds22°C9 mph, SE67%10000m1010hPa69%
28-Jun-2024 06:00Broken Clouds19°C7 mph, SE84%10000m1010hPa82%
28-Jun-2024 09:00Overcast Clouds19°C7 mph, SE100%10000m1009hPa85%
28-Jun-2024 12:00Light Rain20°C4 mph, SE100%10000m1009hPa89%
28-Jun-2024 15:00Light Rain21°C9 mph, SE100%10000m1009hPa94%
28-Jun-2024 18:00Broken Clouds30°C16 mph, S82%10000m1007hPa64%
28-Jun-2024 21:00Broken Clouds34°C13 mph, S73%10000m1005hPa46%
29-Jun-2024 00:00Scattered Clouds32°C11 mph, SW49%10000m1005hPa52%
29-Jun-2024 03:00Few Clouds28°C9 mph, S21%10000m1007hPa59%
29-Jun-2024 06:00Light Rain23°C4 mph, SW48%10000m1010hPa89%
29-Jun-2024 09:00Light Rain23°C0 mph, SE86%10000m1011hPa89%
29-Jun-2024 12:00Light Rain23°C2 mph, SE90%10000m1014hPa95%
29-Jun-2024 15:00Light Rain27°C9 mph, SW64%10000m1015hPa80%
29-Jun-2024 18:00Light Rain31°C9 mph, W66%10000m1016hPa59%
29-Jun-2024 21:00Light Rain31°C9 mph, NE97%10000m1016hPa62%
30-Jun-2024 00:00Overcast Clouds26°C11 mph, N97%10000m1018hPa66%
30-Jun-2024 03:00Broken Clouds22°C11 mph, NE67%10000m1020hPa79%
30-Jun-2024 06:00Broken Clouds20°C11 mph, NE57%10000m1021hPa84%
30-Jun-2024 09:00Overcast Clouds18°C9 mph, NE100%10000m1022hPa87%
30-Jun-2024 12:00Overcast Clouds17°C9 mph, NE98%10000m1023hPa84%
30-Jun-2024 15:00Overcast Clouds22°C7 mph, E100%10000m1024hPa64%
30-Jun-2024 18:00Overcast Clouds27°C4 mph, SE98%10000m1023hPa54%
30-Jun-2024 21:00Light Rain29°C4 mph, E99%10000m1021hPa52%